Startpagina
METAR-TAF:

METAR-TAF

Vliegvelden :

Yaoundé, Kameroen

Luchthaven Yaoundé Nsimalen Internationaal

breedte: 03-50N, lengte: 011-31E, hoogte: 751 m

Actueel weer

Dit bericht is 1 uur en het 14 minuten geleden gemaakt, om 03:00 UTC
Weinig wind
Temperatuur 19°C
Vochtigheid 100%
Druk 1015 hPa
Zicht: 8000 m
Weinig wolken op 600 ft

METAR: FKYS 240300Z 00000KT 8000 FEW006 19/19 Q1015 RETS NOSIG

Tijdstip: 05:14 (04:14 UTC)

Verwachting

Dit bericht is 5 uur en het 14 minuten geleden gemaakt, om 23:00 UTC
Verwachting geldig van 24 om 00 UTC tot 24 om 24 UTC
Wind 2 kt uit variabele richting
Zicht 10 km of meer
Gebroken wolken op 600 ft
Kans 30% :
Tijdelijke
van 24 om 04 UTC tot 24 om 06 UTC
Zicht: 3000 m
nevel
Wijzigt naar
van 24 om 08 UTC tot 24 om 10 UTC
Gebroken wolken op 1600 ft

TAF: FKYS 232300Z 2400/2424 VRB02KT 9999 BKN006 PROB30 TEMPO 2404/2406 3000 BR BECMG 2408/2410 BKN016

Waarnemingen en weersverwachtingen van meer dan 4000 vliegvelden (METAR en TAF).

De beschikbare stations zijn de gele en rode punten op de kaart.

Ga met uw muis naar het station om de naam te zien.

Klik dan om waarnemingen en weersverwachtingen te zien.

kaart wijzigen: klik op de groene knoppen met een zwart kruis om in te zoomen, op de groene knop met een streepje om uit te zoomen of op de groene pijlen voor aangrenzende kaarten.


METAR-TAF: